createdAt,value
2023-04-07T00:01:18.073Z,10.17
2023-04-07T00:03:45.304Z,10.07
2023-04-07T00:06:12.535Z,9.87
2023-04-07T00:08:39.516Z,10.47
2023-04-07T00:11:07.158Z,10.97
2023-04-07T00:13:35.401Z,10.97
2023-04-07T00:16:02.506Z,10.80
2023-04-07T00:18:29.437Z,10.73
2023-04-07T00:20:56.901Z,10.10
2023-04-07T00:23:23.854Z,10.37
2023-04-07T00:25:50.926Z,10.70
2023-04-07T00:28:17.850Z,11.73
2023-04-07T00:30:46.221Z,10.43
2023-04-07T00:33:13.178Z,11.00
2023-04-07T00:35:40.210Z,11.33
2023-04-07T00:38:07.138Z,10.70
2023-04-07T00:40:34.333Z,10.20
2023-04-07T00:43:01.266Z,10.30
2023-04-07T00:45:28.238Z,10.70
2023-04-07T00:47:58.026Z,11.20
2023-04-07T00:50:25.448Z,10.23
2023-04-07T00:52:54.481Z,8.97
2023-04-07T00:55:21.535Z,10.00
2023-04-07T00:57:48.520Z,10.83
2023-04-07T01:00:16.052Z,10.63
2023-04-07T01:02:52.438Z,10.37
2023-04-07T01:05:28.596Z,9.10
2023-04-07T01:08:08.709Z,9.90
2023-04-07T01:10:43.900Z,9.90
2023-04-07T01:13:24.062Z,10.20
2023-04-07T01:15:56.997Z,9.30
2023-04-07T01:18:30.941Z,10.03
2023-04-07T01:21:06.374Z,10.00
2023-04-07T01:24:03.578Z,9.77
2023-04-07T01:26:33.487Z,9.37
2023-04-07T01:29:27.793Z,9.03
2023-04-07T01:31:58.218Z,9.27
2023-04-07T01:34:27.557Z,10.80
2023-04-07T01:36:57.239Z,10.37
2023-04-07T01:39:26.991Z,10.30
2023-04-07T01:41:56.112Z,9.43
2023-04-07T01:44:25.683Z,9.70
2023-04-07T01:46:53.991Z,9.73
2023-04-07T01:49:21.977Z,9.17
2023-04-07T01:51:50.497Z,9.33
2023-04-07T01:54:18.690Z,9.77
2023-04-07T01:56:45.897Z,8.83
2023-04-07T01:59:12.914Z,9.93
2023-04-07T02:01:41.501Z,9.73
2023-04-07T02:04:16.540Z,9.70
2023-04-07T02:06:52.579Z,10.27
2023-04-07T02:09:22.519Z,9.43
2023-04-07T02:11:52.870Z,9.43
2023-04-07T02:14:22.615Z,10.37
2023-04-07T02:16:52.917Z,10.07
2023-04-07T02:19:20.888Z,9.43
2023-04-07T02:21:52.057Z,9.77
2023-04-07T02:24:23.497Z,9.57
2023-04-07T02:26:50.491Z,9.40
2023-04-07T02:29:17.592Z,9.77
2023-04-07T02:31:44.648Z,9.40
2023-04-07T02:34:12.987Z,9.03
2023-04-07T02:36:39.925Z,9.97
2023-04-07T02:39:09.212Z,9.70
2023-04-07T02:41:36.273Z,11.17
2023-04-07T02:44:03.186Z,9.63
2023-04-07T02:46:30.239Z,9.80
2023-04-07T02:48:57.246Z,9.17
2023-04-07T02:51:27.035Z,8.87
2023-04-07T02:53:54.180Z,9.97
2023-04-07T02:56:21.278Z,9.80
2023-04-07T02:58:48.276Z,9.90
2023-04-07T03:01:15.393Z,10.00
2023-04-07T03:03:44.741Z,10.13
2023-04-07T03:06:11.743Z,10.63
2023-04-07T03:08:40.234Z,9.53
2023-04-07T03:11:07.172Z,9.97
2023-04-07T03:13:34.112Z,10.10
2023-04-07T03:16:01.046Z,9.67
2023-04-07T03:18:28.116Z,10.17
2023-04-07T03:20:57.087Z,9.93
2023-04-07T03:23:24.186Z,9.20
2023-04-07T03:25:52.649Z,9.53
2023-04-07T03:28:19.767Z,9.80
2023-04-07T03:30:46.826Z,9.60
2023-04-07T03:33:14.009Z,10.07
2023-04-07T03:35:41.191Z,9.83
2023-04-07T03:38:08.310Z,9.50
2023-04-07T03:40:35.727Z,11.00
2023-04-07T03:43:04.138Z,10.43
2023-04-07T03:45:31.117Z,9.70
2023-04-07T03:47:58.045Z,10.43
2023-04-07T03:50:25.271Z,9.83
2023-04-07T03:52:52.332Z,9.73
2023-04-07T03:55:19.258Z,10.60
2023-04-07T03:57:46.860Z,10.27
2023-04-07T04:00:15.809Z,9.47
2023-04-07T04:02:42.823Z,9.70
2023-04-07T04:05:09.838Z,10.63
2023-04-07T04:07:36.806Z,10.37
2023-04-07T04:10:04.100Z,9.87
2023-04-07T04:12:31.412Z,9.40
2023-04-07T04:14:58.430Z,9.00
2023-04-07T04:17:26.905Z,9.03
2023-04-07T04:19:55.148Z,9.40
2023-04-07T04:22:22.169Z,9.80
2023-04-07T04:24:49.110Z,8.67
2023-04-07T04:27:16.359Z,9.20
2023-04-07T04:29:43.226Z,9.37
2023-04-07T04:32:10.300Z,10.20
2023-04-07T04:34:39.475Z,10.03
2023-04-07T04:37:06.488Z,9.23
2023-04-07T04:39:33.460Z,10.40
2023-04-07T04:42:01.104Z,10.30
2023-04-07T04:44:30.045Z,9.83
2023-04-07T04:46:57.180Z,9.57
2023-04-07T04:49:24.129Z,9.03
2023-04-07T04:51:52.351Z,9.97
2023-04-07T04:54:19.824Z,9.77
2023-04-07T04:56:46.673Z,9.97
2023-04-07T04:59:13.601Z,9.90
2023-04-07T05:01:40.574Z,9.67
2023-04-07T05:04:09.357Z,10.07
2023-04-07T05:06:36.505Z,9.67
2023-04-07T05:09:04.794Z,10.50
2023-04-07T05:11:31.741Z,10.27
2023-04-07T05:13:58.666Z,9.17
2023-04-07T05:16:26.533Z,9.83
2023-04-07T05:18:53.576Z,9.40
2023-04-07T05:21:21.930Z,9.80
2023-04-07T05:23:48.847Z,10.83
2023-04-07T05:26:17.109Z,10.03
2023-04-07T05:28:44.014Z,9.23
2023-04-07T05:31:11.233Z,9.67
2023-04-07T05:33:38.218Z,9.93
2023-04-07T05:36:06.696Z,10.50
2023-04-07T05:38:33.931Z,9.13
2023-04-07T05:41:01.112Z,9.90
2023-04-07T05:43:29.384Z,10.90
2023-04-07T05:45:56.542Z,9.90
2023-04-07T05:48:23.449Z,9.63
2023-04-07T05:50:50.423Z,10.27
2023-04-07T05:53:17.391Z,10.07
2023-04-07T05:55:44.423Z,9.60
2023-04-07T05:58:11.353Z,10.30
2023-04-07T06:00:41.472Z,10.23
2023-04-07T06:03:08.533Z,9.83
2023-04-07T06:05:35.583Z,10.10
2023-04-07T06:08:02.678Z,9.40
2023-04-07T06:10:29.687Z,9.40
2023-04-07T06:12:56.744Z,9.70
2023-04-07T06:15:24.082Z,10.33
2023-04-07T06:17:52.400Z,10.57
2023-04-07T06:20:21.596Z,10.00
2023-04-07T06:22:48.658Z,10.30
2023-04-07T06:25:15.802Z,9.67
2023-04-07T06:27:42.734Z,10.00
2023-04-07T06:30:11.429Z,10.40
2023-04-07T06:32:38.344Z,9.93
2023-04-07T06:35:07.850Z,9.60
2023-04-07T06:37:34.825Z,9.87
2023-04-07T06:40:01.750Z,10.27
2023-04-07T06:42:28.694Z,10.13
2023-04-07T06:44:55.611Z,9.47
2023-04-07T06:47:22.658Z,9.50
2023-04-07T06:49:49.549Z,9.93
2023-04-07T06:52:17.820Z,9.43
2023-04-07T06:54:44.856Z,9.97
2023-04-07T06:57:12.150Z,9.53
2023-04-07T06:59:39.303Z,9.70
2023-04-07T07:02:07.577Z,9.70
2023-04-07T07:04:35.024Z,10.23
2023-04-07T07:07:03.143Z,9.03
2023-04-07T07:09:31.530Z,9.80
2023-04-07T07:11:58.607Z,8.83
2023-04-07T07:14:26.019Z,9.33
2023-04-07T07:16:52.952Z,8.73
2023-04-07T07:19:20.184Z,9.53
2023-04-07T07:21:47.143Z,9.20
2023-04-07T07:24:14.486Z,9.70
2023-04-07T07:26:44.536Z,9.73
2023-04-07T07:29:11.654Z,9.10
2023-04-07T07:31:38.729Z,8.83
2023-04-07T07:34:07.446Z,8.90
2023-04-07T07:36:34.616Z,8.00
2023-04-07T07:39:01.672Z,9.10
2023-04-07T07:41:29.165Z,8.73
2023-04-07T07:43:57.385Z,9.27
2023-04-07T07:46:26.098Z,8.53
2023-04-07T07:48:53.452Z,8.90
2023-04-07T07:51:20.447Z,9.47
2023-04-07T07:53:47.667Z,9.67
2023-04-07T07:56:14.841Z,9.20
2023-04-07T07:58:41.816Z,8.20
2023-04-07T08:01:10.374Z,8.20
2023-04-07T08:03:38.048Z,8.97
2023-04-07T08:06:06.382Z,8.37
2023-04-07T08:08:33.354Z,9.00
2023-04-07T08:11:00.608Z,8.30
2023-04-07T08:13:27.734Z,8.13
2023-04-07T08:15:54.830Z,8.17
2023-04-07T08:18:25.251Z,8.27
2023-04-07T08:20:52.699Z,7.57
2023-04-07T08:23:19.808Z,7.93
2023-04-07T08:25:46.745Z,7.00
2023-04-07T08:28:13.682Z,8.20
2023-04-07T08:30:40.647Z,7.97
2023-04-07T08:33:07.798Z,7.80
2023-04-07T08:35:36.580Z,7.90
2023-04-07T08:38:03.949Z,7.67
2023-04-07T08:40:32.761Z,7.47
2023-04-07T08:43:03.063Z,7.13
2023-04-07T08:45:32.581Z,7.13
2023-04-07T08:48:04.759Z,7.47
2023-04-07T08:50:33.273Z,7.80
2023-04-07T08:53:08.942Z,7.47
2023-04-07T08:55:36.418Z,6.83
2023-04-07T08:58:04.172Z,7.60
2023-04-07T09:00:31.825Z,7.53
2023-04-07T09:03:03.340Z,6.70
2023-04-07T09:05:32.418Z,6.70
2023-04-07T09:08:02.403Z,7.37
2023-04-07T09:10:29.493Z,6.37
2023-04-07T09:12:58.759Z,6.60
2023-04-07T09:15:30.698Z,7.53
2023-04-07T09:17:58.341Z,6.73
2023-04-07T09:20:25.838Z,6.77
2023-04-07T09:22:52.953Z,6.50
2023-04-07T09:25:23.998Z,7.07
2023-04-07T09:27:59.533Z,7.80
2023-04-07T09:30:27.883Z,6.80
2023-04-07T09:32:55.864Z,7.20
2023-04-07T09:35:23.842Z,6.90
2023-04-07T09:38:07.644Z,6.70
2023-04-07T09:40:37.520Z,7.10
2023-04-07T09:43:17.682Z,6.17
2023-04-07T09:45:44.924Z,6.53
2023-04-07T09:48:20.656Z,6.60
2023-04-07T09:50:51.842Z,6.93
2023-04-07T09:53:23.118Z,6.63
2023-04-07T09:55:52.751Z,7.47
2023-04-07T09:58:20.563Z,7.10
2023-04-07T10:00:48.150Z,7.00
2023-04-07T10:03:15.710Z,7.10
2023-04-07T10:05:44.463Z,6.70
2023-04-07T10:08:12.165Z,7.63
2023-04-07T10:10:43.109Z,7.57
2023-04-07T10:13:12.637Z,7.50
2023-04-07T10:15:40.562Z,6.80
2023-04-07T10:18:08.828Z,7.23
2023-04-07T10:20:39.443Z,7.23
2023-04-07T10:23:18.936Z,6.80
2023-04-07T10:25:48.780Z,7.10
2023-04-07T10:28:20.561Z,7.17
2023-04-07T10:30:49.943Z,7.30
2023-04-07T10:33:18.641Z,7.07
2023-04-07T10:36:05.379Z,7.60
2023-04-07T10:38:32.816Z,7.23
2023-04-07T10:40:59.960Z,6.87
2023-04-07T10:43:42.040Z,6.97
2023-04-07T10:46:09.263Z,6.23
2023-04-07T10:48:36.594Z,6.83
2023-04-07T10:51:19.674Z,7.27
2023-04-07T10:54:21.105Z,6.47
2023-04-07T10:57:16.911Z,6.63
2023-04-07T11:00:16.406Z,6.83
2023-04-07T11:02:44.622Z,7.27
2023-04-07T11:05:22.692Z,7.67
2023-04-07T11:07:55.146Z,6.67
2023-04-07T11:10:23.188Z,7.30
2023-04-07T11:13:06.257Z,6.73
2023-04-07T11:15:40.616Z,7.43
2023-04-07T11:18:19.743Z,7.50
2023-04-07T11:20:50.717Z,7.47
2023-04-07T11:23:20.774Z,7.03
2023-04-07T11:25:50.777Z,7.37
2023-04-07T11:28:18.696Z,7.43
2023-04-07T11:30:52.079Z,7.10
2023-04-07T11:33:22.086Z,8.13
2023-04-07T11:35:55.859Z,7.40
2023-04-07T11:38:26.093Z,7.10
2023-04-07T11:40:54.469Z,7.10
2023-04-07T11:43:24.758Z,6.70
2023-04-07T11:46:10.797Z,7.97
2023-04-07T11:48:40.006Z,7.37
2023-04-07T11:51:16.317Z,6.57
2023-04-07T11:53:43.572Z,7.07
2023-04-07T11:56:17.576Z,7.33
2023-04-07T11:58:48.611Z,7.10
2023-04-07T12:01:17.799Z,6.17
2023-04-07T12:03:59.904Z,7.20
2023-04-07T12:06:34.899Z,7.20
2023-04-07T12:09:03.340Z,7.30
2023-04-07T12:11:31.766Z,7.23
2023-04-07T12:13:59.372Z,7.27
2023-04-07T12:16:27.769Z,7.73
2023-04-07T12:18:55.113Z,6.67
2023-04-07T12:21:22.060Z,7.40
2023-04-07T12:23:49.235Z,7.07
2023-04-07T12:26:16.421Z,6.50
2023-04-07T12:28:43.464Z,7.90
2023-04-07T12:31:10.963Z,6.67
2023-04-07T12:33:39.251Z,7.80
2023-04-07T12:36:06.995Z,7.87
2023-04-07T12:38:33.955Z,8.07
2023-04-07T12:41:03.406Z,7.27
2023-04-07T12:43:30.986Z,6.97
2023-04-07T12:45:58.400Z,7.73
2023-04-07T12:48:27.280Z,7.30
2023-04-07T12:50:55.685Z,7.57
2023-04-07T12:53:22.754Z,7.53
2023-04-07T12:55:50.521Z,8.17
2023-04-07T12:58:18.420Z,8.03
2023-04-07T13:00:46.827Z,7.80
2023-04-07T13:03:14.253Z,7.50
2023-04-07T13:05:41.422Z,7.57
2023-04-07T13:08:10.377Z,7.33
2023-04-07T13:10:37.439Z,7.37
2023-04-07T13:13:04.324Z,7.17
2023-04-07T13:15:31.431Z,7.07
2023-04-07T13:17:58.942Z,6.77
2023-04-07T13:20:28.150Z,6.50
2023-04-07T13:23:06.957Z,7.27
2023-04-07T13:25:37.402Z,6.47
2023-04-07T13:28:04.928Z,6.47
2023-04-07T13:30:32.350Z,6.30
2023-04-07T13:32:59.475Z,6.03
2023-04-07T13:35:26.595Z,6.23
2023-04-07T13:37:53.671Z,5.77
2023-04-07T13:40:20.623Z,5.67
2023-04-07T13:42:48.844Z,5.00
2023-04-07T13:45:15.762Z,5.23
2023-04-07T13:47:42.760Z,5.40
2023-04-07T13:50:10.788Z,4.83
2023-04-07T13:52:37.701Z,5.17
2023-04-07T13:55:06.048Z,5.37
2023-04-07T13:57:33.092Z,5.50
2023-04-07T14:00:01.757Z,5.23
2023-04-07T14:02:30.258Z,5.80
2023-04-07T14:04:57.753Z,5.73
2023-04-07T14:07:24.662Z,5.90
2023-04-07T14:09:51.576Z,5.20
2023-04-07T14:12:21.278Z,5.17
2023-04-07T14:14:52.023Z,4.70
2023-04-07T14:17:20.516Z,4.60
2023-04-07T14:19:48.134Z,4.67
2023-04-07T14:22:15.295Z,6.03
2023-04-07T14:24:42.233Z,5.13
2023-04-07T14:27:09.224Z,4.80
2023-04-07T14:29:36.427Z,4.43
2023-04-07T14:32:04.106Z,4.83
2023-04-07T14:34:32.868Z,4.93
2023-04-07T14:36:59.918Z,3.93
2023-04-07T14:39:26.864Z,4.77
2023-04-07T14:41:54.097Z,4.07
2023-04-07T14:44:21.301Z,4.43
2023-04-07T14:46:48.348Z,3.63
2023-04-07T14:49:15.472Z,4.60
2023-04-07T14:51:44.508Z,4.30
2023-04-07T14:54:11.402Z,4.73
2023-04-07T14:56:38.426Z,4.13
2023-04-07T14:59:05.633Z,4.10
2023-04-07T15:01:32.708Z,3.83
2023-04-07T15:04:00.797Z,4.07
2023-04-07T15:06:28.005Z,3.90
2023-04-07T15:08:56.350Z,4.17
2023-04-07T15:11:23.284Z,3.90
2023-04-07T15:13:50.634Z,3.90
2023-04-07T15:16:18.106Z,3.60
2023-04-07T15:18:47.031Z,4.17
2023-04-07T15:21:15.213Z,4.33
2023-04-07T15:23:42.670Z,4.63
2023-04-07T15:26:11.235Z,4.03
2023-04-07T15:28:38.585Z,4.20
2023-04-07T15:31:09.859Z,4.00
2023-04-07T15:33:38.706Z,4.40
2023-04-07T15:36:07.401Z,4.23
2023-04-07T15:38:34.402Z,4.30
2023-04-07T15:41:01.391Z,4.17
2023-04-07T15:43:29.853Z,4.43
2023-04-07T15:45:56.864Z,3.80
2023-04-07T15:48:24.112Z,4.20
2023-04-07T15:50:51.893Z,3.90
2023-04-07T15:53:18.878Z,4.30
2023-04-07T15:55:45.834Z,4.00
2023-04-07T15:58:12.802Z,4.30
2023-04-07T16:00:41.679Z,3.83
2023-04-07T16:03:08.837Z,4.37
2023-04-07T16:05:37.817Z,4.20
2023-04-07T16:08:05.002Z,4.60
2023-04-07T16:10:31.968Z,4.43
2023-04-07T16:12:58.907Z,4.57
2023-04-07T16:18:01.017Z,4.73
2023-04-07T16:20:28.041Z,4.40
2023-04-07T16:22:55.782Z,4.30
2023-04-07T16:25:23.073Z,4.40
2023-04-07T16:27:52.909Z,4.93
2023-04-07T16:30:20.905Z,4.53
2023-04-07T16:32:47.954Z,4.10
2023-04-07T16:35:16.688Z,5.03
2023-04-07T16:37:46.411Z,4.00
2023-04-07T16:40:13.806Z,4.10
2023-04-07T16:42:40.956Z,4.10
2023-04-07T16:45:08.880Z,3.90
2023-04-07T16:47:37.741Z,3.83
2023-04-07T16:50:05.901Z,4.40
2023-04-07T16:52:34.136Z,4.33
2023-04-07T16:55:01.259Z,5.20
2023-04-07T16:57:28.579Z,4.57
2023-04-07T16:59:55.636Z,4.00
2023-04-07T17:02:22.846Z,4.27
2023-04-07T17:04:50.078Z,4.37
2023-04-07T17:07:17.181Z,3.83
2023-04-07T17:09:45.591Z,4.40
2023-04-07T17:12:13.612Z,4.03
2023-04-07T17:14:40.685Z,4.00
2023-04-07T17:17:07.632Z,3.63
2023-04-07T17:19:35.553Z,4.10
2023-04-07T17:22:02.531Z,3.73
2023-04-07T17:24:29.474Z,3.30
2023-04-07T17:26:57.821Z,3.20
2023-04-07T17:29:28.837Z,3.73
2023-04-07T17:31:56.594Z,3.40
2023-04-07T17:34:23.610Z,3.13
2023-04-07T17:36:51.570Z,3.67
2023-04-07T17:39:18.574Z,3.50
2023-04-07T17:41:46.840Z,3.60
2023-04-07T17:44:15.562Z,3.57
2023-04-07T17:46:42.632Z,2.90
2023-04-07T17:49:09.954Z,3.10
2023-04-07T17:51:37.388Z,3.10
2023-04-07T17:54:04.473Z,3.20
2023-04-07T17:56:31.500Z,3.90
2023-04-07T17:58:58.639Z,3.20
2023-04-07T18:01:27.114Z,3.47
2023-04-07T18:03:54.352Z,3.17
2023-04-07T18:06:21.866Z,3.13
2023-04-07T18:08:49.155Z,3.13
2023-04-07T18:11:17.260Z,3.30
2023-04-07T18:13:44.798Z,3.17
2023-04-07T18:16:17.295Z,3.30
2023-04-07T18:18:47.605Z,3.10
2023-04-07T18:21:14.668Z,3.43
2023-04-07T18:23:41.584Z,2.70
2023-04-07T18:26:08.542Z,3.37
2023-04-07T18:28:35.805Z,3.23
2023-04-07T18:31:06.377Z,3.73
2023-04-07T18:33:34.119Z,3.17
2023-04-07T18:36:04.917Z,3.07
2023-04-07T18:38:31.952Z,3.70
2023-04-07T18:40:59.209Z,3.13
2023-04-07T18:43:26.534Z,3.03
2023-04-07T18:45:53.468Z,3.10
2023-04-07T18:48:21.530Z,4.80
2023-04-07T18:50:52.570Z,3.70
2023-04-07T18:53:22.867Z,2.97
2023-04-07T18:55:50.342Z,4.40
2023-04-07T18:58:17.358Z,3.80
2023-04-07T19:00:44.596Z,3.93
2023-04-07T19:03:12.138Z,3.57
2023-04-07T19:05:40.115Z,4.20
2023-04-07T19:08:07.942Z,3.67
2023-04-07T19:10:36.213Z,3.80
2023-04-07T19:13:04.387Z,3.90
2023-04-07T19:15:34.256Z,3.87
2023-04-07T19:18:02.413Z,3.97
2023-04-07T19:20:33.755Z,4.30
2023-04-07T19:23:01.673Z,3.90
2023-04-07T19:25:28.821Z,4.40
2023-04-07T19:27:57.563Z,5.37
2023-04-07T19:30:24.729Z,4.80
2023-04-07T19:32:52.229Z,4.57
2023-04-07T19:35:19.585Z,4.57
2023-04-07T19:37:48.083Z,4.47
2023-04-07T19:40:15.522Z,3.90
2023-04-07T19:42:42.674Z,4.33
2023-04-07T19:45:11.409Z,4.30
2023-04-07T19:47:39.043Z,4.13
2023-04-07T19:50:08.720Z,4.63
2023-04-07T19:52:35.681Z,3.87
2023-04-07T19:55:03.669Z,4.20
2023-04-07T19:57:34.030Z,4.47
2023-04-07T20:00:00.935Z,4.80
2023-04-07T20:02:29.299Z,5.27
2023-04-07T20:04:57.223Z,4.07
2023-04-07T20:07:24.097Z,4.30
2023-04-07T20:09:51.568Z,5.07
2023-04-07T20:12:18.551Z,4.90
2023-04-07T20:14:45.727Z,4.70
2023-04-07T20:17:12.790Z,5.10
2023-04-07T20:19:41.768Z,4.27
2023-04-07T20:22:09.409Z,5.00
2023-04-07T20:24:37.080Z,5.07
2023-04-07T20:27:04.499Z,4.53
2023-04-07T20:29:31.402Z,5.13
2023-04-07T20:31:58.430Z,4.73
2023-04-07T20:34:25.752Z,5.70
2023-04-07T20:36:54.057Z,4.40
2023-04-07T20:39:20.956Z,5.40
2023-04-07T20:41:47.952Z,5.13
2023-04-07T20:44:14.944Z,5.30
2023-04-07T20:46:43.710Z,4.63
2023-04-07T20:49:10.774Z,4.90
2023-04-07T20:51:37.791Z,5.07
2023-04-07T20:54:06.139Z,5.10
2023-04-07T20:56:33.133Z,5.40
2023-04-07T20:59:00.052Z,5.23
2023-04-07T21:01:27.132Z,5.37
2023-04-07T21:03:54.859Z,4.83
2023-04-07T21:06:21.841Z,5.43
2023-04-07T21:08:49.135Z,5.47
2023-04-07T21:11:17.693Z,5.00
2023-04-07T21:13:44.622Z,5.23
2023-04-07T21:16:11.629Z,5.17
2023-04-07T21:18:38.697Z,6.00
2023-04-07T21:21:07.991Z,5.27
2023-04-07T21:23:35.012Z,5.23
2023-04-07T21:26:03.143Z,5.70
2023-04-07T21:28:31.489Z,5.73
2023-04-07T21:30:58.516Z,5.77
2023-04-07T21:33:25.603Z,5.60
2023-04-07T21:35:52.944Z,5.70
2023-04-07T21:38:19.908Z,5.53
2023-04-07T21:40:46.873Z,5.77
2023-04-07T21:43:13.786Z,6.07
2023-04-07T21:45:41.986Z,6.30
2023-04-07T21:48:09.091Z,5.33
2023-04-07T21:50:36.880Z,5.77
2023-04-07T21:53:03.837Z,5.97
2023-04-07T21:55:30.878Z,5.33
2023-04-07T21:57:58.145Z,6.33
2023-04-07T22:00:25.192Z,6.13
2023-04-07T22:02:54.568Z,6.53
2023-04-07T22:05:22.005Z,5.90
2023-04-07T22:07:49.184Z,6.20
2023-04-07T22:10:16.606Z,6.00
2023-04-07T22:12:43.708Z,6.30
2023-04-07T22:15:12.874Z,5.70
2023-04-07T22:17:40.221Z,6.03
2023-04-07T22:20:11.342Z,6.37
2023-04-07T22:22:39.002Z,5.73
2023-04-07T22:25:07.130Z,6.90
2023-04-07T22:27:35.258Z,6.27
2023-04-07T22:30:02.916Z,6.37
2023-04-07T22:32:30.818Z,6.67
2023-04-07T22:34:58.095Z,6.73
2023-04-07T22:37:26.350Z,6.23
2023-04-07T22:39:53.434Z,9.70
2023-04-07T22:42:20.349Z,13.20
2023-04-07T22:44:47.216Z,10.70
2023-04-07T22:47:14.283Z,18.63
2023-04-07T22:49:41.936Z,8.83
2023-04-07T22:52:09.196Z,9.53
2023-04-07T22:54:37.513Z,8.13
2023-04-07T22:57:04.775Z,6.90
2023-04-07T22:59:31.748Z,7.07
2023-04-07T23:01:58.816Z,7.03
2023-04-07T23:04:25.947Z,7.50
2023-04-07T23:06:53.171Z,6.90
2023-04-07T23:09:20.194Z,6.90
2023-04-07T23:11:48.788Z,6.70
2023-04-07T23:14:16.365Z,7.37
2023-04-07T23:16:43.313Z,6.50
2023-04-07T23:19:15.604Z,7.53
2023-04-07T23:21:43.297Z,6.57
2023-04-07T23:24:10.325Z,7.87
2023-04-07T23:26:37.326Z,6.67
2023-04-07T23:29:05.723Z,7.00
2023-04-07T23:31:32.654Z,6.43
2023-04-07T23:33:59.816Z,6.73
2023-04-07T23:36:27.131Z,6.90
2023-04-07T23:38:54.856Z,7.70
2023-04-07T23:41:22.086Z,7.23
2023-04-07T23:43:49.019Z,7.20
2023-04-07T23:46:17.326Z,7.40
2023-04-07T23:48:44.373Z,7.37
2023-04-07T23:51:12.634Z,7.50
2023-04-07T23:53:39.584Z,7.40
2023-04-07T23:56:07.252Z,7.87
2023-04-07T23:58:34.137Z,7.00
